createdAt,value
2019-05-30T00:01:00.001Z,11.97
2019-05-30T00:03:37.337Z,11.97
2019-05-30T00:06:09.447Z,11.98
2019-05-30T00:08:41.177Z,12.00
2019-05-30T00:11:13.873Z,11.98
2019-05-30T00:13:47.152Z,11.99
2019-05-30T00:16:19.763Z,12.03
2019-05-30T00:18:54.671Z,12.06
2019-05-30T00:21:28.037Z,12.12
2019-05-30T00:24:00.423Z,12.08
2019-05-30T00:26:33.414Z,11.93
2019-05-30T00:29:11.792Z,11.93
2019-05-30T00:31:44.008Z,11.97
2019-05-30T00:34:18.900Z,11.90
2019-05-30T00:36:50.980Z,11.88
2019-05-30T00:39:22.722Z,11.87
2019-05-30T00:41:57.776Z,11.95
2019-05-30T00:44:30.297Z,11.92
2019-05-30T00:47:04.490Z,11.90
2019-05-30T00:49:39.267Z,11.92
2019-05-30T00:52:11.046Z,11.94
2019-05-30T00:54:44.574Z,11.99
2019-05-30T00:57:19.708Z,11.92
2019-05-30T00:59:52.567Z,12.00
2019-05-30T01:02:27.675Z,11.97
2019-05-30T01:05:00.928Z,12.01
2019-05-30T01:07:35.616Z,11.94
2019-05-30T01:10:10.093Z,11.91
2019-05-30T01:12:42.732Z,11.87
2019-05-30T01:15:16.336Z,11.93
2019-05-30T01:17:49.811Z,11.92
2019-05-30T01:20:22.651Z,11.86
2019-05-30T01:22:55.585Z,11.84
2019-05-30T01:25:27.701Z,11.81
2019-05-30T01:27:59.817Z,11.84
2019-05-30T01:30:32.646Z,11.83
2019-05-30T01:33:08.883Z,11.80
2019-05-30T01:35:40.387Z,11.74
2019-05-30T01:38:12.176Z,11.74
2019-05-30T01:40:45.718Z,11.78
2019-05-30T01:43:19.279Z,11.76
2019-05-30T01:45:51.110Z,11.82
2019-05-30T01:48:25.285Z,11.72
2019-05-30T01:50:58.323Z,11.71
2019-05-30T01:53:32.738Z,11.73
2019-05-30T01:56:08.925Z,11.73
2019-05-30T01:58:43.619Z,11.75
2019-05-30T02:01:24.396Z,11.68
2019-05-30T02:03:52.217Z,11.71
2019-05-30T02:06:25.710Z,11.60
2019-05-30T02:08:59.158Z,11.68
2019-05-30T02:11:30.824Z,11.64
2019-05-30T02:14:03.659Z,11.54
2019-05-30T02:16:35.967Z,11.50
2019-05-30T02:19:08.039Z,11.37
2019-05-30T02:21:40.023Z,11.41
2019-05-30T02:24:12.294Z,11.35
2019-05-30T02:26:47.683Z,11.21
2019-05-30T02:29:20.222Z,11.24
2019-05-30T02:31:54.933Z,11.24
2019-05-30T02:34:27.132Z,11.23
2019-05-30T02:37:01.169Z,11.23
2019-05-30T02:39:35.745Z,11.16
2019-05-30T02:42:11.720Z,11.17
2019-05-30T02:44:45.816Z,11.08
2019-05-30T02:47:22.565Z,11.05
2019-05-30T02:49:53.668Z,11.01
2019-05-30T02:52:25.895Z,11.03
2019-05-30T02:55:01.851Z,11.05
2019-05-30T02:57:34.230Z,11.09
2019-05-30T03:00:16.263Z,10.96
2019-05-30T03:02:46.438Z,11.06
2019-05-30T03:05:19.017Z,11.09
2019-05-30T03:07:51.289Z,10.99
2019-05-30T03:10:25.068Z,10.94
2019-05-30T03:12:57.505Z,10.94
2019-05-30T03:15:31.975Z,10.95
2019-05-30T03:18:08.023Z,11.00
2019-05-30T03:20:40.197Z,10.91
2019-05-30T03:23:14.631Z,10.86
2019-05-30T03:25:47.462Z,10.90
2019-05-30T03:28:24.231Z,10.78
2019-05-30T03:30:58.504Z,10.72
2019-05-30T03:33:40.453Z,10.74
2019-05-30T03:36:15.739Z,10.76
2019-05-30T03:38:44.974Z,10.67
2019-05-30T03:41:18.041Z,10.80
2019-05-30T03:43:50.419Z,10.78
2019-05-30T03:46:27.870Z,10.76
2019-05-30T03:49:04.338Z,10.91
2019-05-30T03:51:40.708Z,10.88
2019-05-30T03:54:15.809Z,10.83
2019-05-30T03:56:53.955Z,10.75
2019-05-30T03:59:32.329Z,10.78
2019-05-30T04:02:55.130Z,10.81
2019-05-30T04:05:14.209Z,10.79
2019-05-30T04:07:50.850Z,10.84
2019-05-30T04:10:32.382Z,10.78
2019-05-30T04:13:42.829Z,10.78
2019-05-30T04:16:16.876Z,10.72
2019-05-30T04:18:49.557Z,10.72
2019-05-30T04:21:23.730Z,10.74
2019-05-30T04:24:00.720Z,10.66
2019-05-30T04:26:34.063Z,10.69
2019-05-30T04:29:09.790Z,10.66
2019-05-30T04:31:43.760Z,10.59
2019-05-30T04:34:17.709Z,10.64
2019-05-30T04:36:54.047Z,10.68
2019-05-30T04:39:31.131Z,10.65
2019-05-30T04:42:04.633Z,10.63
2019-05-30T04:44:39.701Z,10.55
2019-05-30T04:47:12.704Z,10.58
2019-05-30T04:49:45.750Z,10.63
2019-05-30T04:52:24.474Z,10.59
2019-05-30T04:54:54.068Z,10.58
2019-05-30T04:57:27.235Z,10.58
2019-05-30T05:00:03.083Z,10.62
2019-05-30T05:02:39.017Z,10.55
2019-05-30T05:05:11.373Z,10.56
2019-05-30T05:07:43.338Z,10.56
2019-05-30T05:10:16.019Z,10.60
2019-05-30T05:12:48.718Z,10.52
2019-05-30T05:15:22.792Z,10.51
2019-05-30T05:17:56.701Z,10.58
2019-05-30T05:20:28.899Z,10.66
2019-05-30T05:23:02.680Z,10.61
2019-05-30T05:25:36.438Z,10.56
2019-05-30T05:28:09.560Z,10.47
2019-05-30T05:30:42.124Z,10.49
2019-05-30T05:33:18.506Z,10.53
2019-05-30T05:35:52.008Z,10.56
2019-05-30T05:38:25.191Z,10.64
2019-05-30T05:40:59.024Z,10.70
2019-05-30T05:43:32.257Z,10.69
2019-05-30T05:46:05.748Z,10.60
2019-05-30T05:48:39.541Z,10.49
2019-05-30T05:51:16.581Z,10.46
2019-05-30T05:53:48.894Z,10.56
2019-05-30T05:56:21.411Z,10.61
2019-05-30T05:58:54.148Z,10.56
2019-05-30T06:01:29.940Z,10.65
2019-05-30T06:04:12.584Z,10.57
2019-05-30T06:06:38.038Z,10.65
2019-05-30T06:09:11.446Z,10.81
2019-05-30T06:11:44.702Z,10.81
2019-05-30T06:14:19.842Z,10.86
2019-05-30T06:16:55.088Z,10.79
2019-05-30T06:19:27.348Z,10.87
2019-05-30T06:22:01.669Z,11.01
2019-05-30T06:24:34.163Z,11.15
2019-05-30T06:27:08.831Z,11.05
2019-05-30T06:29:43.668Z,11.10
2019-05-30T06:32:18.583Z,11.08
2019-05-30T06:34:51.634Z,11.03
2019-05-30T06:37:23.662Z,11.10
2019-05-30T06:39:59.103Z,11.15
2019-05-30T06:42:33.187Z,11.15
2019-05-30T06:45:09.996Z,11.03
2019-05-30T06:47:43.016Z,11.02
2019-05-30T06:50:17.846Z,11.05
2019-05-30T06:52:50.041Z,11.10
2019-05-30T06:55:25.134Z,11.16
2019-05-30T06:58:00.339Z,11.00
2019-05-30T07:00:34.200Z,10.98
2019-05-30T07:03:09.361Z,11.16
2019-05-30T07:05:42.641Z,11.19
2019-05-30T07:08:15.602Z,11.10
2019-05-30T07:10:48.968Z,10.97
2019-05-30T07:13:23.242Z,11.03
2019-05-30T07:15:54.895Z,11.01
2019-05-30T07:18:33.171Z,11.17
2019-05-30T07:21:03.738Z,10.96
2019-05-30T07:23:39.653Z,10.79
2019-05-30T07:26:10.656Z,11.02
2019-05-30T07:28:43.352Z,11.02
2019-05-30T07:31:14.899Z,11.09
2019-05-30T07:33:47.011Z,11.18
2019-05-30T07:36:19.010Z,11.16
2019-05-30T07:38:51.232Z,10.98
2019-05-30T07:41:24.641Z,11.01
2019-05-30T07:43:57.029Z,11.24
2019-05-30T07:46:31.118Z,11.01
2019-05-30T07:49:03.643Z,11.04
2019-05-30T07:51:36.948Z,11.18
2019-05-30T07:54:12.695Z,11.19
2019-05-30T07:56:46.835Z,11.14
2019-05-30T07:59:20.183Z,11.22
2019-05-30T08:01:52.954Z,11.16
2019-05-30T08:04:27.436Z,10.96
2019-05-30T08:07:01.527Z,11.17
2019-05-30T08:09:33.662Z,11.27
2019-05-30T08:12:05.292Z,11.22
2019-05-30T08:14:39.928Z,11.36
2019-05-30T08:17:13.527Z,11.40
2019-05-30T08:19:46.211Z,11.24
2019-05-30T08:22:21.544Z,11.36
2019-05-30T08:24:54.270Z,11.48
2019-05-30T08:27:25.802Z,11.53
2019-05-30T08:29:58.293Z,11.44
2019-05-30T08:32:32.432Z,11.28
2019-05-30T08:35:05.297Z,11.48
2019-05-30T08:37:39.354Z,11.52
2019-05-30T08:40:13.337Z,11.55
2019-05-30T08:42:47.060Z,11.36
2019-05-30T08:45:22.954Z,10.98
2019-05-30T08:47:56.271Z,10.95
2019-05-30T08:50:27.870Z,11.05
2019-05-30T08:53:00.089Z,11.23
2019-05-30T08:55:34.382Z,11.34
2019-05-30T08:58:10.518Z,11.53
2019-05-30T09:00:44.993Z,11.21
2019-05-30T09:03:19.282Z,11.42
2019-05-30T09:06:02.683Z,11.65
2019-05-30T09:08:26.122Z,11.56
2019-05-30T09:10:59.274Z,11.60
2019-05-30T09:13:31.670Z,11.69
2019-05-30T09:16:03.903Z,11.55
2019-05-30T09:18:39.971Z,11.69
2019-05-30T09:21:15.156Z,11.43
2019-05-30T09:23:48.236Z,11.43
2019-05-30T09:26:21.579Z,11.21
2019-05-30T09:28:53.918Z,11.04
2019-05-30T09:31:25.982Z,10.97
2019-05-30T09:34:00.756Z,11.20
2019-05-30T09:36:35.160Z,11.23
2019-05-30T09:39:08.379Z,11.48
2019-05-30T09:41:42.054Z,11.48
2019-05-30T09:44:14.816Z,11.33
2019-05-30T09:46:48.976Z,11.21
2019-05-30T09:49:21.698Z,11.18
2019-05-30T09:51:53.623Z,11.10
2019-05-30T09:54:30.827Z,11.44
2019-05-30T09:57:04.245Z,11.44
2019-05-30T09:59:36.824Z,11.49
2019-05-30T10:02:10.564Z,11.36
2019-05-30T10:04:43.911Z,11.43
2019-05-30T10:07:19.404Z,11.29
2019-05-30T10:09:53.029Z,11.31
2019-05-30T10:12:28.301Z,11.63
2019-05-30T10:15:00.608Z,11.50
2019-05-30T10:17:32.733Z,11.57
2019-05-30T10:20:07.087Z,11.77
2019-05-30T10:22:41.493Z,11.68
2019-05-30T10:25:13.216Z,11.68
2019-05-30T10:27:47.876Z,11.54
2019-05-30T10:30:22.532Z,11.57
2019-05-30T10:32:55.860Z,11.59
2019-05-30T10:35:30.335Z,11.36
2019-05-30T10:38:04.447Z,11.66
2019-05-30T10:40:37.861Z,11.61
2019-05-30T10:43:09.603Z,11.58
2019-05-30T10:45:42.719Z,11.41
2019-05-30T10:48:15.420Z,11.34
2019-05-30T10:50:48.532Z,11.13
2019-05-30T10:53:21.995Z,11.17
2019-05-30T10:55:56.471Z,11.31
2019-05-30T10:58:29.075Z,11.29
2019-05-30T11:01:01.483Z,11.26
2019-05-30T11:03:33.626Z,11.23
2019-05-30T11:06:56.849Z,11.10
2019-05-30T11:09:20.275Z,11.04
2019-05-30T11:11:52.932Z,10.98
2019-05-30T11:14:26.572Z,11.02
2019-05-30T11:16:58.143Z,10.98
2019-05-30T11:19:31.698Z,10.95
2019-05-30T11:22:04.354Z,10.69
2019-05-30T11:24:36.124Z,10.67
2019-05-30T11:27:09.540Z,10.69
2019-05-30T11:29:42.760Z,10.72
2019-05-30T11:32:17.406Z,10.67
2019-05-30T11:34:51.229Z,10.63
2019-05-30T11:37:24.517Z,10.71
2019-05-30T11:39:57.753Z,10.80
2019-05-30T11:42:29.705Z,10.82
2019-05-30T11:45:02.747Z,10.88
2019-05-30T11:47:35.745Z,10.91
2019-05-30T11:50:12.638Z,10.94
2019-05-30T11:52:43.761Z,11.02
2019-05-30T11:55:16.646Z,11.05
2019-05-30T11:57:50.043Z,10.99
2019-05-30T12:00:25.890Z,11.18
2019-05-30T12:03:00.970Z,11.19
2019-05-30T12:05:35.675Z,11.08
2019-05-30T12:08:09.884Z,11.16
2019-05-30T12:10:44.640Z,11.03
2019-05-30T12:13:19.759Z,11.04
2019-05-30T12:15:53.423Z,10.94
2019-05-30T12:18:25.906Z,10.88
2019-05-30T12:20:57.813Z,11.00
2019-05-30T12:23:31.507Z,10.88
2019-05-30T12:26:06.319Z,11.01
2019-05-30T12:28:40.312Z,11.04
2019-05-30T12:31:13.418Z,11.12
2019-05-30T12:33:47.751Z,11.17
2019-05-30T12:36:19.870Z,11.29
2019-05-30T12:38:52.214Z,11.18
2019-05-30T12:41:24.505Z,11.03
2019-05-30T12:43:59.071Z,11.22
2019-05-30T12:46:31.240Z,11.34
2019-05-30T12:49:06.273Z,11.12
2019-05-30T12:51:38.511Z,11.00
2019-05-30T12:54:10.956Z,11.11
2019-05-30T12:56:42.693Z,10.90
2019-05-30T12:59:16.195Z,11.02
2019-05-30T13:01:50.194Z,10.96
2019-05-30T13:04:21.858Z,10.88
2019-05-30T13:06:56.009Z,10.85
2019-05-30T13:09:30.289Z,11.03
2019-05-30T13:12:06.905Z,10.98
2019-05-30T13:14:40.799Z,11.04
2019-05-30T13:17:14.841Z,11.01
2019-05-30T13:19:46.715Z,10.94
2019-05-30T13:22:20.350Z,10.96
2019-05-30T13:24:55.506Z,11.00
2019-05-30T13:27:30.656Z,10.95
2019-05-30T13:30:04.177Z,10.93
2019-05-30T13:32:39.433Z,10.84
2019-05-30T13:35:14.913Z,10.90
2019-05-30T13:37:47.572Z,10.92
2019-05-30T13:40:25.817Z,10.94
2019-05-30T13:42:59.720Z,10.94
2019-05-30T13:45:32.175Z,11.05
2019-05-30T13:48:04.468Z,11.04
2019-05-30T13:50:36.782Z,11.10
2019-05-30T13:53:09.487Z,11.00
2019-05-30T13:55:41.158Z,11.17
2019-05-30T13:58:13.800Z,11.21
2019-05-30T14:00:47.381Z,11.14
2019-05-30T14:03:20.702Z,11.17
2019-05-30T14:05:55.612Z,11.17
2019-05-30T14:08:40.796Z,11.20
2019-05-30T14:11:02.683Z,11.32
2019-05-30T14:13:35.531Z,11.30
2019-05-30T14:16:09.022Z,11.36
2019-05-30T14:18:41.578Z,11.51
2019-05-30T14:21:13.997Z,11.36
2019-05-30T14:23:47.196Z,11.31
2019-05-30T14:26:20.216Z,11.30
2019-05-30T14:28:53.399Z,11.32
2019-05-30T14:31:26.278Z,11.35
2019-05-30T14:33:59.473Z,11.26
2019-05-30T14:36:32.655Z,11.23
2019-05-30T14:39:11.197Z,11.30
2019-05-30T14:41:44.283Z,11.48
2019-05-30T14:44:18.688Z,11.59
2019-05-30T14:46:50.330Z,11.66
2019-05-30T14:49:23.428Z,11.39
2019-05-30T14:51:56.443Z,11.48
2019-05-30T14:54:30.573Z,11.50
2019-05-30T14:57:02.613Z,11.37
2019-05-30T14:59:36.984Z,11.40
2019-05-30T15:02:11.203Z,11.41
2019-05-30T15:04:48.044Z,11.39
2019-05-30T15:07:19.779Z,11.30
2019-05-30T15:09:53.438Z,11.28
2019-05-30T15:12:25.816Z,11.27
2019-05-30T15:15:00.360Z,11.31
2019-05-30T15:17:34.561Z,11.11
2019-05-30T15:20:10.313Z,11.07
2019-05-30T15:22:41.726Z,10.98
2019-05-30T15:25:18.113Z,10.99
2019-05-30T15:27:56.448Z,11.02
2019-05-30T15:30:29.856Z,11.00
2019-05-30T15:33:03.948Z,11.11
2019-05-30T15:35:39.149Z,11.11
2019-05-30T15:38:11.055Z,10.96
2019-05-30T15:40:44.338Z,10.93
2019-05-30T15:43:18.873Z,10.88
2019-05-30T15:45:52.274Z,10.82
2019-05-30T15:48:25.949Z,10.91
2019-05-30T15:50:58.408Z,10.85
2019-05-30T15:53:31.201Z,10.78
2019-05-30T15:56:03.038Z,10.74
2019-05-30T15:58:35.610Z,10.73
2019-05-30T16:01:10.474Z,10.73
2019-05-30T16:03:43.858Z,10.91
2019-05-30T16:06:18.575Z,10.79
2019-05-30T16:08:52.881Z,10.80
2019-05-30T16:11:27.844Z,10.80
2019-05-30T16:14:00.337Z,10.75
2019-05-30T16:16:39.994Z,10.80
2019-05-30T16:19:17.372Z,10.69
2019-05-30T16:21:43.496Z,10.73
2019-05-30T16:24:18.992Z,10.77
2019-05-30T16:26:51.618Z,10.65
2019-05-30T16:29:23.949Z,10.64
2019-05-30T16:31:56.628Z,10.59
2019-05-30T16:34:32.667Z,10.69
2019-05-30T16:37:03.006Z,10.71
2019-05-30T16:39:34.784Z,10.69
2019-05-30T16:42:10.991Z,10.72
2019-05-30T16:44:43.851Z,10.68
2019-05-30T16:47:16.609Z,10.56
2019-05-30T16:49:50.340Z,10.60
2019-05-30T16:52:25.761Z,10.55
2019-05-30T16:54:59.418Z,10.62
2019-05-30T16:57:31.871Z,10.60
2019-05-30T17:00:04.807Z,10.61
2019-05-30T17:02:36.628Z,10.60
2019-05-30T17:05:11.703Z,10.68
2019-05-30T17:07:48.233Z,10.68
2019-05-30T17:10:26.663Z,10.61
2019-05-30T17:12:56.765Z,10.71
2019-05-30T17:15:30.730Z,10.74
2019-05-30T17:18:04.550Z,10.67
2019-05-30T17:20:36.916Z,10.73
2019-05-30T17:23:09.462Z,10.80
2019-05-30T17:25:45.173Z,10.94
2019-05-30T17:28:22.287Z,10.94
2019-05-30T17:30:55.719Z,11.02
2019-05-30T17:33:28.890Z,11.09
2019-05-30T17:36:02.184Z,11.17
2019-05-30T17:38:34.213Z,11.20
2019-05-30T17:41:07.822Z,11.21
2019-05-30T17:43:39.400Z,11.10
2019-05-30T17:46:11.436Z,11.10
2019-05-30T17:48:44.216Z,11.20
2019-05-30T17:51:16.026Z,11.13
2019-05-30T17:53:49.613Z,11.02
2019-05-30T17:56:26.138Z,10.89
2019-05-30T17:58:58.380Z,10.78
2019-05-30T18:01:30.878Z,10.77
2019-05-30T18:04:05.112Z,10.69
2019-05-30T18:06:37.737Z,10.59
2019-05-30T18:09:10.859Z,10.48
2019-05-30T18:11:44.807Z,10.39
2019-05-30T18:14:17.412Z,10.44
2019-05-30T18:16:51.554Z,10.31
2019-05-30T18:19:27.353Z,10.26
2019-05-30T18:22:02.727Z,10.18
2019-05-30T18:24:35.819Z,10.14
2019-05-30T18:27:08.621Z,9.95
2019-05-30T18:29:40.618Z,9.80
2019-05-30T18:32:12.967Z,9.77
2019-05-30T18:34:46.427Z,9.66
2019-05-30T18:37:20.708Z,9.56
2019-05-30T18:39:55.630Z,9.50
2019-05-30T18:42:29.125Z,9.56
2019-05-30T18:45:05.737Z,9.50
2019-05-30T18:47:38.445Z,9.48
2019-05-30T18:50:12.202Z,9.38
2019-05-30T18:52:45.536Z,9.35
2019-05-30T18:55:19.636Z,9.36
2019-05-30T18:57:57.988Z,9.34
2019-05-30T19:00:29.669Z,9.30
2019-05-30T19:03:02.316Z,9.28
2019-05-30T19:05:36.959Z,9.31
2019-05-30T19:08:09.931Z,9.27
2019-05-30T19:10:42.965Z,9.26
2019-05-30T19:13:16.473Z,9.27
2019-05-30T19:15:49.110Z,9.32
2019-05-30T19:18:20.815Z,9.31
2019-05-30T19:20:52.469Z,9.31
2019-05-30T19:23:24.353Z,9.31
2019-05-30T19:25:58.194Z,9.30
2019-05-30T19:28:36.622Z,9.27
2019-05-30T19:31:12.862Z,9.31
2019-05-30T19:33:45.537Z,9.29
2019-05-30T19:36:19.700Z,9.26
2019-05-30T19:38:54.585Z,9.31
2019-05-30T19:41:28.654Z,9.28
2019-05-30T19:44:00.797Z,9.27
2019-05-30T19:46:36.256Z,9.28
2019-05-30T19:49:08.107Z,9.31
2019-05-30T19:51:41.385Z,9.28
2019-05-30T19:54:13.316Z,9.28
2019-05-30T19:56:47.744Z,9.27
2019-05-30T19:59:20.720Z,9.24
2019-05-30T20:01:56.420Z,9.22
2019-05-30T20:04:32.213Z,9.20
2019-05-30T20:07:05.526Z,9.20
2019-05-30T20:09:40.797Z,9.18
2019-05-30T20:12:13.116Z,9.20
2019-05-30T20:14:49.440Z,9.18
2019-05-30T20:17:24.316Z,9.19
2019-05-30T20:19:59.709Z,9.24
2019-05-30T20:22:31.855Z,9.29
2019-05-30T20:25:08.623Z,9.26
2019-05-30T20:27:44.640Z,9.27
2019-05-30T20:30:19.203Z,9.29
2019-05-30T20:32:53.777Z,9.32
2019-05-30T20:35:25.915Z,9.30
2019-05-30T20:38:01.343Z,9.30
2019-05-30T20:40:34.926Z,9.32
2019-05-30T20:43:09.982Z,9.34
2019-05-30T20:45:48.008Z,9.35
2019-05-30T20:48:20.535Z,9.34
2019-05-30T20:50:53.282Z,9.37
2019-05-30T20:53:25.717Z,9.33
2019-05-30T20:55:59.552Z,9.35
2019-05-30T20:58:33.846Z,9.34
2019-05-30T21:01:05.977Z,9.32
2019-05-30T21:03:41.857Z,9.33
2019-05-30T21:06:15.789Z,9.31
2019-05-30T21:08:50.326Z,9.36
2019-05-30T21:11:25.650Z,9.39
2019-05-30T21:13:59.163Z,9.44
2019-05-30T21:16:33.066Z,9.43
2019-05-30T21:19:06.650Z,9.50
2019-05-30T21:21:40.005Z,9.48
2019-05-30T21:24:13.171Z,9.48
2019-05-30T21:26:47.667Z,9.53
2019-05-30T21:29:22.262Z,9.52
2019-05-30T21:31:54.714Z,9.53
2019-05-30T21:34:26.883Z,9.58
2019-05-30T21:36:59.436Z,9.65
2019-05-30T21:39:34.421Z,9.62
2019-05-30T21:42:06.644Z,9.65
2019-05-30T21:44:40.642Z,9.65
2019-05-30T21:47:13.729Z,9.72
2019-05-30T21:49:47.076Z,9.74
2019-05-30T21:52:20.607Z,9.79
2019-05-30T21:54:53.600Z,9.79
2019-05-30T21:57:26.532Z,9.79
2019-05-30T22:00:00.785Z,9.77
2019-05-30T22:02:33.585Z,9.80
2019-05-30T22:05:09.699Z,9.82
2019-05-30T22:07:43.586Z,9.80
2019-05-30T22:10:17.028Z,9.78
2019-05-30T22:12:51.878Z,9.90
2019-05-30T22:15:24.196Z,9.91
2019-05-30T22:17:56.646Z,9.88
2019-05-30T22:20:28.296Z,9.95
2019-05-30T22:23:00.395Z,9.98
2019-05-30T22:25:32.125Z,9.93
2019-05-30T22:28:05.880Z,9.96
2019-05-30T22:30:37.565Z,9.87
2019-05-30T22:33:09.874Z,9.80
2019-05-30T22:35:43.296Z,9.79
2019-05-30T22:38:16.077Z,9.83
2019-05-30T22:40:49.971Z,9.81
2019-05-30T22:43:25.471Z,9.84
2019-05-30T22:45:56.853Z,9.80
2019-05-30T22:48:29.839Z,9.80
2019-05-30T22:51:02.628Z,9.86
2019-05-30T22:53:37.566Z,9.92
2019-05-30T22:56:11.024Z,9.89
2019-05-30T22:58:43.320Z,9.83
2019-05-30T23:01:15.732Z,9.84
2019-05-30T23:03:52.622Z,9.90
2019-05-30T23:06:27.804Z,9.95
2019-05-30T23:08:59.646Z,9.86
2019-05-30T23:11:33.223Z,9.78
2019-05-30T23:14:07.192Z,9.75
2019-05-30T23:16:41.644Z,9.73
2019-05-30T23:19:14.559Z,9.78
2019-05-30T23:21:48.721Z,9.69
2019-05-30T23:24:23.583Z,9.61
2019-05-30T23:26:56.218Z,9.57
2019-05-30T23:29:27.809Z,9.59
2019-05-30T23:32:00.653Z,9.62
2019-05-30T23:34:33.927Z,9.64
2019-05-30T23:37:06.658Z,9.58
2019-05-30T23:39:39.305Z,9.54
2019-05-30T23:42:12.035Z,9.56
2019-05-30T23:44:44.909Z,9.53
2019-05-30T23:47:16.510Z,9.49
2019-05-30T23:49:51.659Z,9.48
2019-05-30T23:52:24.627Z,9.47
2019-05-30T23:54:56.822Z,9.48
2019-05-30T23:57:30.737Z,9.47
